Time;durP1;ratioP1;P1;durP2;ratioP2;P2;SDS_P1;SDS_P2;PMS_P1;PMS_P2;Temp;Humidity;BMP_temperature;BMP_pressure;BME280_temperature;BME280_humidity;BME280_pressure;Samples;Min_cycle;Max_cycle;Signal;HPM_P1;HPM_P2
2021/03/21 00:00:49;;;;;;;4.17;3.23;;;-1.40;99.90;;;;;;2081222;28;20235;-65
2021/03/21 00:01:50;;;;;;;4.93;3.70;;;-1.30;99.90;;;;;;2080566;28;20179;-64
2021/03/21 00:02:51;;;;;;;5.32;3.70;;;-1.30;99.90;;;;;;2080728;28;20174;-64
2021/03/21 00:03:53;;;;;;;6.00;3.92;;;-1.20;99.90;;;;;;2081262;28;20257;-64
2021/03/21 00:04:54;;;;;;;5.70;3.80;;;-1.20;99.90;;;;;;2080803;28;20236;-64
2021/03/21 00:05:55;;;;;;;5.77;4.17;;;-1.20;99.90;;;;;;2080891;28;20167;-65
2021/03/21 00:06:55;;;;;;;4.60;3.50;;;-1.20;99.90;;;;;;2081157;28;20178;-64
2021/03/21 00:08:01;;;;;;;5.70;4.23;;;-1.20;99.90;;;;;;2080832;28;20192;-64
2021/03/21 00:09:03;;;;;;;5.07;3.55;;;-1.20;99.90;;;;;;2081349;28;20158;-65
2021/03/21 00:10:06;;;;;;;5.93;4.18;;;-1.10;99.90;;;;;;2080530;28;20212;-64
2021/03/21 00:11:07;;;;;;;6.20;3.83;;;-1.10;99.90;;;;;;2080186;28;20222;-64
2021/03/21 00:12:09;;;;;;;4.90;3.63;;;-1.10;99.90;;;;;;2088682;28;20191;-64
2021/03/21 00:13:10;;;;;;;6.88;4.68;;;-1.10;99.90;;;;;;2081409;28;20270;-64
2021/03/21 00:14:10;;;;;;;6.60;4.60;;;-1.00;99.90;;;;;;2080983;28;20187;-64
2021/03/21 00:15:12;;;;;;;5.97;4.80;;;-1.00;99.90;;;;;;2081070;28;20183;-64
2021/03/21 00:16:13;;;;;;;6.85;4.53;;;-1.10;99.90;;;;;;2080773;28;20202;-65
2021/03/21 00:17:14;;;;;;;5.43;3.95;;;-1.10;99.90;;;;;;2081286;28;20274;-64
2021/03/21 00:18:18;;;;;;;6.63;4.60;;;-1.00;99.90;;;;;;2081034;28;20677;-65
2021/03/21 00:19:19;;;;;;;5.72;4.47;;;-1.10;99.90;;;;;;2081122;28;20215;-64
2021/03/21 00:20:25;;;;;;;7.40;4.23;;;-1.00;99.90;;;;;;2081135;28;20186;-64
2021/03/21 00:21:26;;;;;;;5.90;4.80;;;-1.10;99.90;;;;;;2080442;28;20226;-64
2021/03/21 00:22:27;;;;;;;6.22;4.72;;;-1.00;99.90;;;;;;2081125;28;20213;-64
2021/03/21 00:23:28;;;;;;;6.27;4.50;;;-1.00;99.90;;;;;;2081221;28;20799;-64
2021/03/21 00:24:29;;;;;;;7.30;4.60;;;-1.00;99.90;;;;;;2081028;28;20960;-65
2021/03/21 00:25:33;;;;;;;4.67;3.90;;;-1.00;99.90;;;;;;2080297;28;20228;-64
2021/03/21 00:26:35;;;;;;;7.57;4.45;;;-1.00;99.90;;;;;;2080378;28;20562;-64
2021/03/21 00:27:35;;;;;;;5.03;4.10;;;-1.00;99.90;;;;;;2080955;28;20715;-64
2021/03/21 00:28:38;;;;;;;6.07;4.70;;;-1.00;99.90;;;;;;2081083;28;20210;-64
2021/03/21 00:29:42;;;;;;;5.28;4.38;;;-1.00;99.90;;;;;;2081050;28;20256;-65
2021/03/21 00:30:45;;;;;;;5.97;4.20;;;-1.00;99.90;;;;;;2080891;28;20189;-64
2021/03/21 00:31:46;;;;;;;6.00;4.20;;;-1.10;99.90;;;;;;2079778;28;20181;-65
2021/03/21 00:32:47;;;;;;;6.77;4.77;;;-1.10;99.90;;;;;;2080926;28;20237;-64
2021/03/21 00:33:47;;;;;;;7.13;4.80;;;-1.10;99.90;;;;;;2081073;28;20221;-64
2021/03/21 00:34:48;;;;;;;7.50;4.97;;;-1.10;99.90;;;;;;2080956;28;20279;-64
2021/03/21 00:35:53;;;;;;;6.37;4.80;;;-1.10;99.90;;;;;;2080974;28;20179;-64
2021/03/21 00:36:54;;;;;;;6.03;4.47;;;-1.20;99.90;;;;;;2080996;28;20160;-64
2021/03/21 00:37:57;;;;;;;5.67;4.13;;;-1.20;99.90;;;;;;2080677;28;20230;-64
2021/03/21 00:38:58;;;;;;;5.72;4.13;;;-1.20;99.90;;;;;;2080851;28;20548;-64
2021/03/21 00:39:59;;;;;;;5.67;4.33;;;-1.20;99.90;;;;;;2080912;28;20207;-64
2021/03/21 00:41:00;;;;;;;6.30;4.40;;;-1.20;99.90;;;;;;2079735;28;20646;-64
2021/03/21 00:42:02;;;;;;;5.85;4.43;;;-1.20;99.90;;;;;;2080384;28;20242;-64
2021/03/21 00:43:03;;;;;;;6.82;4.50;;;-1.20;99.90;;;;;;2080818;28;20235;-64
2021/03/21 00:44:04;;;;;;;5.10;3.93;;;-1.20;99.90;;;;;;2080998;28;20958;-64
2021/03/21 00:45:09;;;;;;;5.38;4.38;;;-1.20;99.90;;;;;;2081003;28;20487;-64
2021/03/21 00:46:10;;;;;;;6.63;4.40;;;-1.30;99.90;;;;;;2080919;28;20198;-64
2021/03/21 00:47:11;;;;;;;5.15;4.50;;;-1.30;99.90;;;;;;2080868;28;20209;-64
2021/03/21 00:48:18;;;;;;;6.53;4.57;;;-1.30;99.90;;;;;;2080924;28;20195;-64
2021/03/21 00:49:18;;;;;;;8.98;4.65;;;-1.30;99.90;;;;;;2080836;28;20356;-64
2021/03/21 00:50:33;;;;;;;7.53;4.50;;;-1.40;99.90;;;;;;2081048;28;20316;-64
2021/03/21 00:51:34;;;;;;;6.25;4.47;;;-1.30;99.90;;;;;;2080504;28;20196;-64
2021/03/21 00:52:35;;;;;;;6.73;4.43;;;-1.40;99.90;;;;;;2081015;28;20227;-64
2021/03/21 00:53:36;;;;;;;5.47;4.40;;;-1.30;99.90;;;;;;2080801;28;20182;-64
2021/03/21 00:54:37;;;;;;;4.95;4.10;;;-1.30;99.90;;;;;;2080744;28;20184;-64
2021/03/21 00:55:38;;;;;;;5.50;4.30;;;-1.30;99.90;;;;;;2080973;28;20237;-64
2021/03/21 00:56:40;;;;;;;6.27;4.57;;;-1.30;99.90;;;;;;2081096;28;20189;-64
2021/03/21 00:57:42;;;;;;;6.13;4.70;;;-1.40;99.90;;;;;;2080215;28;20783;-64
2021/03/21 00:58:43;;;;;;;4.90;4.10;;;-1.40;99.90;;;;;;2080463;28;20192;-64
2021/03/21 00:59:44;;;;;;;7.30;4.27;;;-1.50;99.90;;;;;;2080666;28;20632;-64
2021/03/21 01:00:55;;;;;;;7.47;4.63;;;-1.50;99.90;;;;;;2080859;28;20210;-64
2021/03/21 01:01:56;;;;;;;5.82;4.43;;;-1.50;99.90;;;;;;2080175;28;20173;-64
2021/03/21 01:02:57;;;;;;;5.43;4.40;;;-1.60;99.90;;;;;;2080302;28;20173;-64
2021/03/21 01:03:58;;;;;;;7.07;4.80;;;-1.60;99.90;;;;;;2080801;28;20178;-64
2021/03/21 01:04:58;;;;;;;6.78;4.82;;;-1.60;99.90;;;;;;2080884;28;20199;-64
2021/03/21 01:06:03;;;;;;;6.03;4.80;;;-1.70;99.90;;;;;;2080814;28;20190;-64
2021/03/21 01:07:04;;;;;;;6.75;4.72;;;-1.70;99.90;;;;;;2081181;28;20178;-64
2021/03/21 01:08:26;;;;;;;7.82;4.85;;;-1.70;99.90;;;;;;2081163;28;20243;-64
2021/03/21 01:09:27;;;;;;;7.07;4.35;;;-1.80;99.90;;;;;;2080922;28;20260;-64
2021/03/21 01:10:34;;;;;;;5.87;4.63;;;-1.80;99.90;;;;;;2080738;28;20202;-64
2021/03/21 01:11:37;;;;;;;7.72;5.05;;;-1.90;99.90;;;;;;2080514;28;20205;-64
2021/03/21 01:12:38;;;;;;;7.22;4.80;;;-1.90;99.90;;;;;;2080901;28;20190;-64
2021/03/21 01:13:40;;;;;;;6.57;4.57;;;-2.00;99.90;;;;;;2088536;28;20188;-65
2021/03/21 01:14:41;;;;;;;6.30;4.72;;;-2.00;99.90;;;;;;2088357;28;20181;-64
2021/03/21 01:15:41;;;;;;;6.47;4.47;;;-2.00;99.90;;;;;;2080788;28;20255;-64
2021/03/21 01:16:42;;;;;;;7.07;4.67;;;-2.00;99.90;;;;;;2080749;28;20192;-64
2021/03/21 01:17:43;;;;;;;4.95;4.10;;;-2.00;99.90;;;;;;2080933;28;20205;-64
2021/03/21 01:18:44;;;;;;;6.53;4.73;;;-2.10;99.90;;;;;;2080833;28;20194;-64
2021/03/21 01:19:45;;;;;;;8.77;5.60;;;-2.10;99.90;;;;;;2088456;28;20612;-64
2021/03/21 01:20:46;;;;;;;6.17;4.77;;;-2.10;99.90;;;;;;2088450;28;20189;-64
2021/03/21 01:21:48;;;;;;;6.28;4.50;;;-2.00;99.90;;;;;;2088208;28;20622;-64
2021/03/21 01:22:49;;;;;;;7.25;4.38;;;-2.00;99.90;;;;;;2088404;28;20180;-64
2021/03/21 01:23:50;;;;;;;5.43;4.30;;;-2.00;99.90;;;;;;2080320;28;20189;-64
2021/03/21 01:24:51;;;;;;;6.80;4.67;;;-2.10;99.90;;;;;;2080393;28;20192;-64
2021/03/21 01:25:52;;;;;;;6.60;4.63;;;-2.00;99.90;;;;;;2081102;28;20174;-64
2021/03/21 01:26:53;;;;;;;7.00;4.85;;;-2.00;99.90;;;;;;2080919;28;20177;-64
2021/03/21 01:27:56;;;;;;;8.40;5.17;;;-2.00;99.90;;;;;;2080994;28;20545;-65
2021/03/21 01:29:00;;;;;;;7.85;4.90;;;-2.00;99.90;;;;;;2080913;28;20612;-64
2021/03/21 01:30:00;;;;;;;7.65;4.90;;;-1.90;99.90;;;;;;2080995;28;20209;-64
2021/03/21 01:31:05;;;;;;;7.23;5.17;;;-2.00;99.90;;;;;;2080384;28;20208;-64
2021/03/21 01:32:08;;;;;;;7.85;4.53;;;-2.00;99.90;;;;;;2080843;28;20221;-64
2021/03/21 01:33:09;;;;;;;6.68;4.90;;;-2.00;99.90;;;;;;2080998;28;20200;-64
2021/03/21 01:34:12;;;;;;;6.87;4.50;;;-2.00;99.90;;;;;;2080874;28;20559;-64
2021/03/21 01:35:13;;;;;;;7.72;5.05;;;-2.10;99.90;;;;;;2081022;28;20181;-64
2021/03/21 01:36:27;;;;;;;7.43;4.82;;;-2.00;99.90;;;;;;2080810;28;20216;-64
2021/03/21 01:37:28;;;;;;;4.82;4.30;;;-2.00;99.90;;;;;;2080287;28;20177;-64
2021/03/21 01:38:28;;;;;;;7.60;4.87;;;-1.90;99.90;;;;;;2080216;28;20744;-64
2021/03/21 01:39:29;;;;;;;9.07;4.37;;;-1.90;99.90;;;;;;2080782;28;20227;-64
2021/03/21 01:40:30;;;;;;;5.97;4.07;;;-1.90;99.90;;;;;;2080775;28;20174;-64
2021/03/21 01:41:35;;;;;;;5.77;4.10;;;-1.80;99.90;;;;;;2080473;28;20706;-64
2021/03/21 01:42:44;;;;;;;7.47;4.70;;;-1.80;99.90;;;;;;2080063;28;20181;-65
2021/03/21 01:43:46;;;;;;;7.25;4.82;;;-1.80;99.90;;;;;;2081838;28;20253;-65
2021/03/21 01:44:46;;;;;;;7.55;4.88;;;-1.80;99.90;;;;;;2081816;28;20179;-64
2021/03/21 01:45:50;;;;;;;6.83;4.63;;;-1.80;99.90;;;;;;2081904;28;20670;-64
2021/03/21 01:46:53;;;;;;;8.27;4.97;;;-1.80;99.90;;;;;;2081796;28;20212;-65
2021/03/21 01:47:54;;;;;;;7.80;5.05;;;-1.70;99.90;;;;;;2081578;28;20186;-64
2021/03/21 01:48:57;;;;;;;8.48;4.65;;;-1.70;99.90;;;;;;2082371;28;20760;-64
2021/03/21 01:50:01;;;;;;;6.43;4.68;;;-1.70;99.90;;;;;;2082346;28;20251;-64
2021/03/21 01:51:21;;;;;;;7.43;5.15;;;-1.80;99.90;;;;;;2089293;28;20653;-65
2021/03/21 01:52:38;;;;;;;6.57;4.93;;;-1.80;99.90;;;;;;2087625;28;20180;-65
2021/03/21 01:53:44;;;;;;;8.52;4.75;;;-1.70;99.90;;;;;;2081698;28;20184;-64
2021/03/21 01:54:45;;;;;;;6.47;4.55;;;-1.80;99.90;;;;;;2081831;28;20166;-64
2021/03/21 01:55:46;;;;;;;8.30;5.63;;;-1.70;99.90;;;;;;2081472;28;20178;-64
2021/03/21 01:56:47;;;;;;;8.10;5.57;;;-1.80;99.90;;;;;;2081767;28;20177;-64
2021/03/21 01:57:50;;;;;;;7.68;4.95;;;-1.80;99.90;;;;;;2081514;28;20215;-64
2021/03/21 01:59:00;;;;;;;7.32;5.13;;;-1.80;99.90;;;;;;2081545;28;20260;-65
2021/03/21 02:00:05;;;;;;;5.53;4.07;;;-1.90;99.90;;;;;;2081558;28;20227;-64
2021/03/21 02:01:24;;;;;;;7.18;4.10;;;-1.90;99.90;;;;;;2081161;28;20623;-64
2021/03/21 02:02:25;;;;;;;6.78;4.18;;;-2.00;99.90;;;;;;2082392;28;20188;-65
2021/03/21 02:03:27;;;;;;;5.90;4.13;;;-2.00;99.90;;;;;;2082026;28;20188;-64
2021/03/21 02:04:28;;;;;;;5.50;4.18;;;-1.90;99.90;;;;;;2082035;28;20202;-64
2021/03/21 02:05:29;;;;;;;7.70;4.90;;;-1.80;99.90;;;;;;2081657;28;20277;-64
2021/03/21 02:06:35;;;;;;;6.73;5.07;;;-1.80;99.90;;;;;;2081121;28;20185;-64
2021/03/21 02:07:55;;;;;;;6.97;4.57;;;-1.90;99.90;;;;;;2074282;28;20166;-65
2021/03/21 02:09:28;;;;;;;5.72;4.28;;;-1.80;99.90;;;;;;2073420;28;20253;-64
2021/03/21 02:11:30;;;;;;;8.13;4.30;;;-1.80;99.90;;;;;;2071147;28;20711;-64
2021/03/21 02:12:57;;;;;;;5.72;3.67;;;-1.70;99.90;;;;;;2073598;28;20620;-65
2021/03/21 02:14:34;;;;;;;5.07;4.00;;;-1.80;99.90;;;;;;2065407;28;20188;-64
2021/03/21 02:15:50;;;;;;;5.28;3.90;;;-1.80;99.90;;;;;;2067029;28;20547;-64
2021/03/21 02:17:47;;;;;;;6.05;3.70;;;-1.90;99.90;;;;;;2073477;28;20186;-64
2021/03/21 02:19:18;;;;;;;5.63;3.28;;;-1.90;99.90;;;;;;2048463;29;20219;-64
2021/03/21 02:21:17;;;;;;;6.15;3.90;;;-2.00;99.90;;;;;;2048517;29;20177;-64
2021/03/21 02:22:34;;;;;;;6.80;4.05;;;-2.00;99.90;;;;;;2073998;28;20174;-64
2021/03/21 02:24:17;;;;;;;5.40;3.85;;;-2.00;99.90;;;;;;2073686;28;20173;-64
2021/03/21 02:25:36;;;;;;;6.95;4.00;;;-1.90;99.90;;;;;;2073811;28;20182;-65
2021/03/21 02:27:13;;;;;;;5.65;4.15;;;-1.90;99.90;;;;;;2073428;28;20176;-64
2021/03/21 02:29:30;;;;;;;5.47;3.70;;;-1.80;99.90;;;;;;2073477;28;20650;-65
2021/03/21 02:30:43;;;;;;;5.57;3.60;;;-1.80;99.90;;;;;;2048810;29;20192;-64
2021/03/21 02:31:55;;;;;;;5.35;3.78;;;-1.70;99.90;;;;;;2040367;29;20217;-64
2021/03/21 02:33:13;;;;;;;5.30;4.10;;;-1.70;99.90;;;;;;2056557;28;20194;-64
2021/03/21 02:34:18;;;;;;;6.22;3.67;;;-1.70;99.90;;;;;;2073860;28;20182;-64
2021/03/21 02:35:32;;;;;;;5.90;3.63;;;-1.70;99.90;;;;;;2073325;28;20174;-64
2021/03/21 02:36:41;;;;;;;7.05;4.15;;;-1.70;99.90;;;;;;2066712;28;20176;-64
2021/03/21 02:38:00;;;;;;;6.50;4.10;;;-1.60;99.90;;;;;;2065925;28;20170;-64
2021/03/21 02:39:30;;;;;;;4.20;3.10;;;-1.70;99.90;;;;;;2073446;28;20174;-64
2021/03/21 02:40:41;;;;;;;5.15;3.85;;;-1.60;99.90;;;;;;2073386;28;20174;-64
2021/03/21 02:41:53;;;;;;;5.43;3.80;;;-1.70;99.90;;;;;;2066123;28;20207;-64
2021/03/21 02:43:18;;;;;;;6.20;3.83;;;-1.70;99.90;;;;;;2073349;28;20184;-64
2021/03/21 02:44:30;;;;;;;5.28;3.45;;;-1.70;99.90;;;;;;2073051;28;20185;-64
2021/03/21 02:45:36;;;;;;;6.35;3.58;;;-1.70;99.90;;;;;;2073455;28;20166;-65
2021/03/21 02:46:43;;;;;;;5.40;3.95;;;-1.60;99.90;;;;;;2073117;28;20214;-64
2021/03/21 02:47:47;;;;;;;6.60;3.83;;;-1.70;99.90;;;;;;2065698;28;20253;-64
2021/03/21 02:48:55;;;;;;;6.43;4.22;;;-1.70;99.90;;;;;;2073162;28;20179;-64
2021/03/21 02:50:04;;;;;;;5.90;3.90;;;-1.70;99.90;;;;;;2075075;28;20201;-64
2021/03/21 02:51:14;;;;;;;5.75;4.30;;;-1.70;99.90;;;;;;2068507;28;20174;-64
2021/03/21 02:52:36;;;;;;;5.45;4.00;;;-1.70;99.90;;;;;;2069828;28;20244;-64
2021/03/21 02:53:51;;;;;;;5.30;4.22;;;-1.60;99.90;;;;;;2075914;28;20194;-64
2021/03/21 02:55:23;;;;;;;6.97;4.20;;;-1.60;99.90;;;;;;2072466;28;20657;-64
2021/03/21 02:56:28;;;;;;;5.38;3.97;;;-1.70;99.90;;;;;;2069357;28;20185;-64
2021/03/21 02:57:38;;;;;;;5.05;3.95;;;-1.70;99.90;;;;;;2065567;28;20583;-64
2021/03/21 02:58:50;;;;;;;6.25;4.03;;;-1.70;99.90;;;;;;2066169;28;20230;-64
2021/03/21 02:59:56;;;;;;;7.25;4.45;;;-1.60;99.90;;;;;;2066694;28;20294;-64
2021/03/21 03:01:22;;;;;;;6.93;4.30;;;-1.60;99.90;;;;;;2072645;28;20190;-64
2021/03/21 03:02:40;;;;;;;6.53;4.07;;;-1.70;99.90;;;;;;2073102;28;20186;-64
2021/03/21 03:03:46;;;;;;;6.18;4.25;;;-1.60;99.90;;;;;;2073316;28;20201;-66
2021/03/21 03:04:57;;;;;;;5.63;4.00;;;-1.60;99.90;;;;;;2072964;28;20726;-64
2021/03/21 03:06:06;;;;;;;6.22;4.18;;;-1.60;99.90;;;;;;2058276;28;20173;-64
2021/03/21 03:07:35;;;;;;;6.30;4.57;;;-1.60;99.90;;;;;;2059080;28;20249;-64
2021/03/21 03:08:46;;;;;;;5.70;4.38;;;-1.60;99.90;;;;;;2073055;28;20257;-64
2021/03/21 03:09:55;;;;;;;7.20;4.72;;;-1.60;99.90;;;;;;2072826;28;20203;-64
2021/03/21 03:11:10;;;;;;;6.43;4.40;;;-1.50;99.90;;;;;;2072146;28;20183;-65
2021/03/21 03:12:26;;;;;;;9.05;4.75;;;-1.50;99.90;;;;;;2072805;28;20579;-64
2021/03/21 03:13:41;;;;;;;8.98;5.10;;;-1.50;99.90;;;;;;2066599;28;20207;-64
2021/03/21 03:14:43;;;;;;;9.60;6.15;;;-1.60;99.90;;;;;;2074539;28;20201;-64
2021/03/21 03:15:45;;;;;;;11.10;6.45;;;-1.60;99.90;;;;;;2072880;28;20507;-64
2021/03/21 03:17:32;;;;;;;12.63;6.88;;;-1.60;99.90;;;;;;2072903;28;20195;-64
2021/03/21 03:18:48;;;;;;;10.45;5.40;;;-1.60;99.90;;;;;;2073695;28;20210;-64
2021/03/21 03:20:13;;;;;;;10.55;5.53;;;-1.60;99.90;;;;;;2072923;28;20216;-64
2021/03/21 03:21:32;;;;;;;8.32;4.93;;;-1.70;99.90;;;;;;2067406;28;20474;-64
2021/03/21 03:22:51;;;;;;;8.32;5.18;;;-1.60;99.90;;;;;;2067252;28;20210;-64
2021/03/21 03:24:00;;;;;;;10.25;4.95;;;-1.60;99.90;;;;;;2067213;28;20745;-65
2021/03/21 03:25:19;;;;;;;7.63;5.07;;;-1.60;99.90;;;;;;2072872;28;20171;-64
2021/03/21 03:26:41;;;;;;;7.07;4.38;;;-1.60;99.90;;;;;;2073411;28;20578;-64
2021/03/21 03:28:05;;;;;;;6.60;4.35;;;-1.60;99.90;;;;;;2072743;28;20602;-64
2021/03/21 03:29:18;;;;;;;6.50;4.38;;;-1.50;99.90;;;;;;2073211;28;20175;-64
2021/03/21 03:30:25;;;;;;;5.57;3.97;;;-1.50;99.90;;;;;;2072800;28;20179;-64
2021/03/21 03:31:34;;;;;;;6.60;4.25;;;-1.50;99.90;;;;;;2064620;28;20202;-64
2021/03/21 03:32:35;;;;;;;8.18;4.20;;;-1.40;99.90;;;;;;2065940;28;20173;-64
2021/03/21 03:33:37;;;;;;;6.10;4.30;;;-1.50;99.90;;;;;;2072836;28;20185;-64
2021/03/21 03:34:49;;;;;;;6.35;4.18;;;-1.50;99.90;;;;;;2080886;28;20183;-65
2021/03/21 03:35:51;;;;;;;5.72;4.55;;;-1.50;99.90;;;;;;2072656;28;20174;-64
2021/03/21 03:36:52;;;;;;;6.43;4.15;;;-1.50;99.90;;;;;;2072612;28;20185;-65
2021/03/21 03:37:53;;;;;;;6.82;4.90;;;-1.50;99.90;;;;;;2073124;28;20627;-65
2021/03/21 03:38:54;;;;;;;7.43;4.97;;;-1.50;99.90;;;;;;2073148;28;20176;-65
2021/03/21 03:39:55;;;;;;;7.33;5.03;;;-1.60;99.90;;;;;;2073267;28;20205;-64
2021/03/21 03:41:08;;;;;;;6.97;4.73;;;-1.60;99.90;;;;;;2072681;28;20237;-65
2021/03/21 03:42:21;;;;;;;6.72;4.20;;;-1.60;99.90;;;;;;2072661;28;20203;-65
2021/03/21 03:43:48;;;;;;;6.88;4.40;;;-1.60;99.90;;;;;;2066120;28;20168;-64
2021/03/21 03:45:08;;;;;;;6.22;4.28;;;-1.70;99.90;;;;;;2068041;28;20691;-64
2021/03/21 03:46:38;;;;;;;6.65;3.45;;;-1.60;99.90;;;;;;2072578;28;20269;-64
2021/03/21 03:47:53;;;;;;;5.70;3.35;;;-1.60;99.90;;;;;;2077404;28;20517;-65
2021/03/21 03:49:22;;;;;;;5.13;3.00;;;-1.60;99.90;;;;;;2081153;28;20205;-64
2021/03/21 03:50:35;;;;;;;8.45;3.47;;;-1.60;99.90;;;;;;2081408;28;20216;-64
2021/03/21 03:52:03;;;;;;;4.47;3.10;;;-1.60;99.90;;;;;;2080755;28;20170;-66
2021/03/21 03:53:34;;;;;;;3.83;2.90;;;-1.70;99.90;;;;;;2080585;28;20184;-65
2021/03/21 03:54:56;;;;;;;4.35;2.90;;;-1.70;99.90;;;;;;2076745;28;20175;-64
2021/03/21 03:56:09;;;;;;;4.75;3.17;;;-1.70;99.90;;;;;;2081270;28;20625;-64
2021/03/21 03:57:27;;;;;;;4.22;2.88;;;-1.70;99.90;;;;;;2081631;28;20176;-65
2021/03/21 03:58:42;;;;;;;4.43;2.63;;;-1.70;99.90;;;;;;2080568;28;20608;-64
2021/03/21 04:00:03;;;;;;;3.97;2.72;;;-1.70;99.90;;;;;;2081292;28;20208;-64
2021/03/21 04:01:12;;;;;;;3.38;2.60;;;-1.70;99.90;;;;;;2088498;28;20616;-64
2021/03/21 04:02:28;;;;;;;5.30;3.10;;;-1.80;99.90;;;;;;2081088;28;20177;-65
2021/03/21 04:03:49;;;;;;;4.45;3.05;;;-1.80;99.90;;;;;;2065981;28;21520;-64
2021/03/21 04:05:13;;;;;;;3.78;3.00;;;-1.80;99.90;;;;;;2075285;28;20161;-64
2021/03/21 04:06:41;;;;;;;5.50;3.20;;;-1.90;99.90;;;;;;2083940;28;20166;-64
2021/03/21 04:07:47;;;;;;;4.70;3.08;;;-1.90;99.90;;;;;;2085676;28;20218;-64
2021/03/21 04:09:45;;;;;;;3.75;3.10;;;-1.80;99.90;;;;;;2080476;28;20173;-64
2021/03/21 04:11:03;;;;;;;3.40;2.72;;;-1.80;99.90;;;;;;2079222;28;20704;-63
2021/03/21 04:12:11;;;;;;;4.53;2.90;;;-1.80;99.90;;;;;;2080592;28;20269;-64
2021/03/21 04:13:40;;;;;;;3.90;3.10;;;-1.80;99.90;;;;;;2080459;28;20167;-64
2021/03/21 04:14:50;;;;;;;4.72;3.10;;;-1.70;99.90;;;;;;2081435;28;20246;-64
2021/03/21 04:15:55;;;;;;;4.57;3.15;;;-1.70;99.90;;;;;;2080519;28;20189;-63
2021/03/21 04:17:47;;;;;;;3.92;2.95;;;-1.70;99.90;;;;;;2073065;28;20194;-64
2021/03/21 04:19:02;;;;;;;5.40;3.53;;;-1.70;99.90;;;;;;2079255;28;20177;-64
2021/03/21 04:20:32;;;;;;;5.30;3.40;;;-1.70;99.90;;;;;;2074115;28;20678;-64
2021/03/21 04:21:59;;;;;;;4.60;3.20;;;-1.70;99.90;;;;;;2074419;28;20189;-64
2021/03/21 04:23:04;;;;;;;4.95;3.40;;;-1.70;99.90;;;;;;2071491;28;20586;-64
2021/03/21 04:24:19;;;;;;;6.22;3.38;;;-1.70;99.90;;;;;;2072882;28;20176;-64
2021/03/21 04:25:25;;;;;;;5.18;3.13;;;-1.70;99.90;;;;;;2074116;28;20175;-63
2021/03/21 04:26:45;;;;;;;3.55;2.70;;;-1.70;99.90;;;;;;2081456;28;20159;-64
2021/03/21 04:28:10;;;;;;;4.50;3.15;;;-1.70;99.90;;;;;;2080336;28;20173;-65
2021/03/21 04:29:48;;;;;;;6.32;3.28;;;-1.80;99.90;;;;;;2076971;28;20164;-64
2021/03/21 04:30:54;;;;;;;5.10;3.15;;;-1.70;99.90;;;;;;2063914;28;20187;-64
2021/03/21 04:32:00;;;;;;;4.22;3.30;;;-1.70;99.90;;;;;;2081407;28;20162;-64
2021/03/21 04:33:06;;;;;;;4.63;3.20;;;-1.60;99.90;;;;;;2081222;28;20165;-64
2021/03/21 04:34:09;;;;;;;5.32;3.70;;;-1.60;99.90;;;;;;2080664;28;20173;-64
2021/03/21 04:35:32;;;;;;;4.80;3.35;;;-1.50;99.90;;;;;;2072820;28;20699;-65
2021/03/21 04:36:43;;;;;;;6.00;3.78;;;-1.50;99.90;;;;;;2080809;28;20235;-64
2021/03/21 04:37:49;;;;;;;4.65;3.30;;;-1.50;99.90;;;;;;2080366;28;20676;-64
2021/03/21 04:39:04;;;;;;;4.40;3.45;;;-1.40;99.90;;;;;;2073199;28;20164;-64
2021/03/21 04:40:09;;;;;;;4.85;3.63;;;-1.40;99.90;;;;;;2080458;28;20255;-64
2021/03/21 04:41:17;;;;;;;4.28;3.30;;;-1.40;99.90;;;;;;2080300;28;20169;-65
2021/03/21 04:42:41;;;;;;;6.13;3.78;;;-1.40;99.90;;;;;;2081157;28;20714;-64
2021/03/21 04:43:54;;;;;;;5.50;3.40;;;-1.40;99.90;;;;;;2080457;28;20637;-64
2021/03/21 04:45:12;;;;;;;5.47;3.38;;;-1.30;99.90;;;;;;2080405;28;20646;-64
2021/03/21 04:46:41;;;;;;;3.58;2.88;;;-1.30;99.90;;;;;;2080607;28;20189;-64
2021/03/21 04:47:53;;;;;;;3.88;2.95;;;-1.30;99.90;;;;;;2080490;28;20534;-64
2021/03/21 04:48:54;;;;;;;3.65;2.50;;;-1.30;99.90;;;;;;2080528;28;20202;-65
2021/03/21 04:49:59;;;;;;;5.50;2.65;;;-1.30;99.90;;;;;;2080413;28;20198;-64
2021/03/21 04:51:06;;;;;;;2.97;2.30;;;-1.30;99.90;;;;;;2079943;28;20179;-64
2021/03/21 04:52:55;;;;;;;4.05;2.55;;;-1.30;99.90;;;;;;2080505;28;20251;-65
2021/03/21 04:54:23;;;;;;;4.70;2.47;;;-1.30;99.90;;;;;;2069722;28;20733;-64
2021/03/21 04:55:50;;;;;;;3.00;2.30;;;-1.30;99.90;;;;;;2072712;28;20606;-65
2021/03/21 04:57:16;;;;;;;4.05;2.33;;;-1.30;99.90;;;;;;2075658;28;20193;-65
2021/03/21 04:58:36;;;;;;;3.20;2.30;;;-1.30;99.90;;;;;;2080763;28;20204;-65
2021/03/21 04:59:39;;;;;;;3.33;2.25;;;-1.20;99.90;;;;;;2080403;28;20209;-65
2021/03/21 05:00:44;;;;;;;2.50;2.10;;;-1.20;99.90;;;;;;2080783;28;20188;-65
2021/03/21 05:02:08;;;;;;;2.97;2.22;;;-1.30;99.90;;;;;;2080137;28;20169;-65
2021/03/21 05:03:21;;;;;;;3.00;2.30;;;-1.40;99.90;;;;;;2075396;28;20185;-65
2021/03/21 05:04:27;;;;;;;2.67;2.30;;;-1.50;99.90;;;;;;2066107;28;20534;-64
2021/03/21 05:05:34;;;;;;;3.15;2.25;;;-1.50;99.90;;;;;;2073722;28;20181;-64
2021/03/21 05:06:54;;;;;;;2.60;2.10;;;-1.50;99.90;;;;;;2080357;28;20170;-64
2021/03/21 05:08:23;;;;;;;2.85;2.28;;;-1.40;99.90;;;;;;2074894;28;20162;-65
2021/03/21 05:09:38;;;;;;;3.53;2.50;;;-1.40;99.90;;;;;;2076234;28;20189;-64
2021/03/21 05:10:47;;;;;;;3.03;2.28;;;-1.50;99.90;;;;;;2074584;28;20200;-64
2021/03/21 05:12:16;;;;;;;3.42;2.50;;;-1.50;99.90;;;;;;2072986;28;20194;-64
2021/03/21 05:13:54;;;;;;;3.58;2.20;;;-1.40;99.90;;;;;;2075758;28;20187;-65
2021/03/21 05:15:11;;;;;;;4.00;2.13;;;-1.40;99.90;;;;;;2077552;28;20166;-65
2021/03/21 05:16:39;;;;;;;4.35;2.40;;;-1.40;99.90;;;;;;2074514;28;20200;-63
2021/03/21 05:18:01;;;;;;;2.90;2.17;;;-1.50;99.90;;;;;;2075833;28;20170;-64
2021/03/21 05:19:36;;;;;;;3.47;2.20;;;-1.40;99.90;;;;;;2082262;28;20174;-64
2021/03/21 05:21:06;;;;;;;2.63;1.83;;;-1.40;99.90;;;;;;2082197;28;20208;-63
2021/03/21 05:22:19;;;;;;;4.88;2.13;;;-1.40;99.90;;;;;;2077709;28;20167;-65
2021/03/21 05:23:48;;;;;;;2.83;2.05;;;-1.40;99.90;;;;;;2082003;28;20345;-63
2021/03/21 05:25:30;;;;;;;3.92;2.10;;;-1.40;99.90;;;;;;2082989;28;20198;-65
2021/03/21 05:26:34;;;;;;;2.70;1.80;;;-1.40;99.90;;;;;;2082508;28;20173;-64
2021/03/21 05:27:44;;;;;;;3.72;1.90;;;-1.30;99.90;;;;;;2081841;28;20182;-64
2021/03/21 05:29:07;;;;;;;3.15;2.38;;;-1.30;99.90;;;;;;2074913;28;20263;-66
2021/03/21 05:30:17;;;;;;;2.42;1.98;;;-1.20;99.90;;;;;;2041008;29;20217;-64
2021/03/21 05:31:18;;;;;;;3.40;2.08;;;-1.20;99.90;;;;;;2067037;28;20240;-64
2021/03/21 05:32:21;;;;;;;3.00;2.00;;;-1.20;99.90;;;;;;2073852;28;20841;-64
2021/03/21 05:33:22;;;;;;;3.47;2.40;;;-1.10;99.90;;;;;;2081839;28;20289;-64
2021/03/21 05:34:22;;;;;;;3.13;2.23;;;-1.20;99.90;;;;;;2082315;28;20258;-64
2021/03/21 05:35:36;;;;;;;2.60;1.93;;;-1.20;99.90;;;;;;2082510;28;20591;-64
2021/03/21 05:36:58;;;;;;;2.88;2.00;;;-1.20;99.90;;;;;;2081909;28;20169;-64
2021/03/21 05:38:11;;;;;;;2.65;1.90;;;-1.10;99.90;;;;;;2082043;28;20230;-64
2021/03/21 05:39:32;;;;;;;3.15;1.98;;;-1.10;99.90;;;;;;2082181;28;20277;-64
2021/03/21 05:41:31;;;;;;;3.35;2.28;;;-1.10;99.90;;;;;;2082230;28;20201;-64
2021/03/21 05:43:09;;;;;;;3.72;2.20;;;-1.20;99.90;;;;;;2082371;28;20199;-64
2021/03/21 05:44:47;;;;;;;3.00;2.03;;;-1.20;99.90;;;;;;2082548;28;20174;-64
2021/03/21 05:46:37;;;;;;;2.83;1.85;;;-1.20;99.90;;;;;;2081739;28;20253;-64
2021/03/21 05:48:07;;;;;;;2.70;2.10;;;-1.10;99.90;;;;;;2082105;28;20198;-64
2021/03/21 05:49:44;;;;;;;3.42;2.20;;;-1.10;99.90;;;;;;2082272;28;20189;-64
2021/03/21 05:51:20;;;;;;;2.53;1.80;;;-1.00;99.90;;;;;;2082293;28;20171;-64
2021/03/21 05:53:00;;;;;;;3.97;2.08;;;-1.00;99.90;;;;;;2082497;28;20904;-65
2021/03/21 05:54:26;;;;;;;3.92;2.20;;;-1.00;99.90;;;;;;2084165;28;20162;-65
2021/03/21 05:55:58;;;;;;;4.05;2.05;;;-1.10;99.90;;;;;;2084216;28;20174;-64
2021/03/21 05:57:17;;;;;;;4.90;2.05;;;-1.00;99.90;;;;;;2079698;28;20185;-65
2021/03/21 05:59:04;;;;;;;2.97;2.05;;;-0.90;99.90;;;;;;2082797;28;20381;-65
2021/03/21 06:00:44;;;;;;;3.28;1.90;;;-0.90;99.90;;;;;;2082355;28;20208;-65
2021/03/21 06:02:08;;;;;;;2.63;2.00;;;-1.00;99.90;;;;;;2081773;28;20196;-64
2021/03/21 06:03:54;;;;;;;3.47;2.20;;;-0.90;99.90;;;;;;2081727;28;20663;-65
2021/03/21 06:05:49;;;;;;;3.15;2.33;;;-0.90;99.90;;;;;;2081903;28;20279;-65
2021/03/21 06:06:57;;;;;;;3.13;2.13;;;-0.90;99.90;;;;;;2089025;28;20655;-65
2021/03/21 06:08:27;;;;;;;2.35;1.83;;;-0.80;99.90;;;;;;2081524;28;20171;-64
2021/03/21 06:09:53;;;;;;;4.07;1.95;;;-0.80;99.90;;;;;;2081897;28;20719;-64
2021/03/21 06:11:40;;;;;;;3.03;2.20;;;-0.80;99.90;;;;;;2081191;28;20180;-64
2021/03/21 06:13:23;;;;;;;15.38;7.47;;;-0.80;99.90;;;;;;2079353;28;20701;-65
2021/03/21 06:15:07;;;;;;;11.55;6.22;;;-0.70;99.90;;;;;;2081612;28;20194;-64
2021/03/21 06:16:41;;;;;;;15.27;8.63;;;-0.60;99.90;;;;;;2080988;28;20578;-64
2021/03/21 06:18:17;;;;;;;9.73;4.50;;;-0.60;99.90;;;;;;2081583;28;20259;-64
2021/03/21 06:19:55;;;;;;;10.93;5.03;;;-0.60;99.90;;;;;;2081129;28;20187;-64
2021/03/21 06:21:10;;;;;;;3.92;2.90;;;-0.50;99.90;;;;;;2077352;28;20182;-64
2021/03/21 06:22:40;;;;;;;3.10;2.28;;;-0.60;99.90;;;;;;2074610;28;20279;-64